sensor_id;sensor_type;location;lat;lon;timestamp;P1;durP1;ratioP1;P2;durP2;ratioP2
63110;SDS011;49201;53.426;10.300;2022-09-14T00:01:24;7.50;;;1.50;;
63110;SDS011;49201;53.426;10.300;2022-09-14T00:03:56;5.77;;;1.30;;
63110;SDS011;49201;53.426;10.300;2022-09-14T00:06:23;3.90;;;1.83;;
63110;SDS011;49201;53.426;10.300;2022-09-14T00:08:50;7.57;;;1.60;;
63110;SDS011;49201;53.426;10.300;2022-09-14T00:11:17;5.87;;;1.50;;
63110;SDS011;49201;53.426;10.300;2022-09-14T00:13:44;6.67;;;1.60;;
63110;SDS011;49201;53.426;10.300;2022-09-14T00:16:15;9.10;;;1.50;;
63110;SDS011;49201;53.426;10.300;2022-09-14T00:18:43;7.07;;;1.57;;
63110;SDS011;49201;53.426;10.300;2022-09-14T00:21:09;6.20;;;1.33;;
63110;SDS011;49201;53.426;10.300;2022-09-14T00:23:36;6.90;;;1.73;;
63110;SDS011;49201;53.426;10.300;2022-09-14T00:26:04;6.23;;;1.60;;
63110;SDS011;49201;53.426;10.300;2022-09-14T00:28:41;7.67;;;1.93;;
63110;SDS011;49201;53.426;10.300;2022-09-14T00:31:10;6.53;;;1.67;;
63110;SDS011;49201;53.426;10.300;2022-09-14T00:33:35;8.03;;;1.70;;
63110;SDS011;49201;53.426;10.300;2022-09-14T00:36:09;8.17;;;2.00;;
63110;SDS011;49201;53.426;10.300;2022-09-14T00:38:37;5.53;;;1.50;;
63110;SDS011;49201;53.426;10.300;2022-09-14T00:41:05;6.97;;;1.40;;
63110;SDS011;49201;53.426;10.300;2022-09-14T00:43:31;4.10;;;1.60;;
63110;SDS011;49201;53.426;10.300;2022-09-14T00:46:00;7.07;;;1.53;;
63110;SDS011;49201;53.426;10.300;2022-09-14T00:48:26;7.07;;;1.67;;
63110;SDS011;49201;53.426;10.300;2022-09-14T00:50:54;5.07;;;1.23;;
63110;SDS011;49201;53.426;10.300;2022-09-14T00:53:20;5.53;;;1.50;;
63110;SDS011;49201;53.426;10.300;2022-09-14T00:55:46;5.43;;;1.50;;
63110;SDS011;49201;53.426;10.300;2022-09-14T00:58:11;3.97;;;1.43;;
63110;SDS011;49201;53.426;10.300;2022-09-14T01:00:37;4.00;;;1.33;;
63110;SDS011;49201;53.426;10.300;2022-09-14T01:03:02;5.77;;;1.83;;
63110;SDS011;49201;53.426;10.300;2022-09-14T01:05:46;6.47;;;1.67;;
63110;SDS011;49201;53.426;10.300;2022-09-14T01:08:31;8.93;;;2.10;;
63110;SDS011;49201;53.426;10.300;2022-09-14T01:14:02;7.20;;;1.87;;
63110;SDS011;49201;53.426;10.300;2022-09-14T01:16:41;7.27;;;1.73;;
63110;SDS011;49201;53.426;10.300;2022-09-14T01:21:49;5.33;;;1.80;;
63110;SDS011;49201;53.426;10.300;2022-09-14T01:24:21;6.83;;;2.07;;
63110;SDS011;49201;53.426;10.300;2022-09-14T01:32:37;5.87;;;1.60;;
63110;SDS011;49201;53.426;10.300;2022-09-14T01:40:47;6.30;;;1.27;;
63110;SDS011;49201;53.426;10.300;2022-09-14T01:43:22;3.37;;;1.40;;
63110;SDS011;49201;53.426;10.300;2022-09-14T01:45:55;3.83;;;1.93;;
63110;SDS011;49201;53.426;10.300;2022-09-14T01:48:26;5.27;;;1.50;;
63110;SDS011;49201;53.426;10.300;2022-09-14T01:51:11;5.17;;;1.40;;
63110;SDS011;49201;53.426;10.300;2022-09-14T01:53:56;3.00;;;1.50;;
63110;SDS011;49201;53.426;10.300;2022-09-14T01:56:54;7.10;;;1.67;;
63110;SDS011;49201;53.426;10.300;2022-09-14T01:59:29;5.87;;;1.70;;
63110;SDS011;49201;53.426;10.300;2022-09-14T02:07:30;6.50;;;1.80;;
63110;SDS011;49201;53.426;10.300;2022-09-14T02:09:57;9.10;;;2.30;;
63110;SDS011;49201;53.426;10.300;2022-09-14T02:12:23;13.60;;;5.23;;
63110;SDS011;49201;53.426;10.300;2022-09-14T02:14:50;19.50;;;6.83;;
63110;SDS011;49201;53.426;10.300;2022-09-14T02:17:18;12.13;;;4.83;;
63110;SDS011;49201;53.426;10.300;2022-09-14T02:19:45;11.57;;;4.20;;
63110;SDS011;49201;53.426;10.300;2022-09-14T02:22:16;11.00;;;4.00;;
63110;SDS011;49201;53.426;10.300;2022-09-14T02:24:41;8.17;;;3.53;;
63110;SDS011;49201;53.426;10.300;2022-09-14T02:27:07;10.40;;;2.77;;
63110;SDS011;49201;53.426;10.300;2022-09-14T02:29:33;8.97;;;3.00;;
63110;SDS011;49201;53.426;10.300;2022-09-14T02:40:33;5.83;;;2.43;;
63110;SDS011;49201;53.426;10.300;2022-09-14T02:48:47;8.63;;;2.03;;
63110;SDS011;49201;53.426;10.300;2022-09-14T02:51:24;8.40;;;2.30;;
63110;SDS011;49201;53.426;10.300;2022-09-14T02:56:52;8.27;;;2.20;;
63110;SDS011;49201;53.426;10.300;2022-09-14T02:59:17;5.17;;;2.00;;
63110;SDS011;49201;53.426;10.300;2022-09-14T03:01:42;6.13;;;1.97;;
63110;SDS011;49201;53.426;10.300;2022-09-14T03:04:08;4.70;;;2.03;;
63110;SDS011;49201;53.426;10.300;2022-09-14T03:06:33;6.20;;;2.47;;
63110;SDS011;49201;53.426;10.300;2022-09-14T03:09:00;7.23;;;1.90;;
63110;SDS011;49201;53.426;10.300;2022-09-14T03:11:25;7.17;;;2.50;;
63110;SDS011;49201;53.426;10.300;2022-09-14T03:13:51;8.63;;;2.20;;
63110;SDS011;49201;53.426;10.300;2022-09-14T03:16:16;6.83;;;2.17;;
63110;SDS011;49201;53.426;10.300;2022-09-14T03:18:42;7.00;;;2.50;;
63110;SDS011;49201;53.426;10.300;2022-09-14T03:21:12;9.13;;;2.33;;
63110;SDS011;49201;53.426;10.300;2022-09-14T03:23:44;6.73;;;2.63;;
63110;SDS011;49201;53.426;10.300;2022-09-14T03:26:18;7.67;;;2.57;;
63110;SDS011;49201;53.426;10.300;2022-09-14T03:28:49;7.80;;;2.40;;
63110;SDS011;49201;53.426;10.300;2022-09-14T03:31:18;5.07;;;2.77;;
63110;SDS011;49201;53.426;10.300;2022-09-14T03:33:44;6.37;;;2.23;;
63110;SDS011;49201;53.426;10.300;2022-09-14T03:38:36;8.37;;;2.43;;
63110;SDS011;49201;53.426;10.300;2022-09-14T03:41:06;8.27;;;2.53;;
63110;SDS011;49201;53.426;10.300;2022-09-14T03:43:34;7.33;;;1.87;;
63110;SDS011;49201;53.426;10.300;2022-09-14T03:46:03;5.47;;;2.40;;
63110;SDS011;49201;53.426;10.300;2022-09-14T03:48:33;5.97;;;2.20;;
63110;SDS011;49201;53.426;10.300;2022-09-14T03:50:59;4.23;;;2.13;;
63110;SDS011;49201;53.426;10.300;2022-09-14T03:53:26;6.63;;;2.13;;
63110;SDS011;49201;53.426;10.300;2022-09-14T03:55:51;6.70;;;2.17;;
63110;SDS011;49201;53.426;10.300;2022-09-14T03:58:17;6.57;;;2.20;;
63110;SDS011;49201;53.426;10.300;2022-09-14T04:00:42;6.30;;;2.10;;
63110;SDS011;49201;53.426;10.300;2022-09-14T04:03:08;4.50;;;1.87;;
63110;SDS011;49201;53.426;10.300;2022-09-14T04:05:33;7.40;;;2.10;;
63110;SDS011;49201;53.426;10.300;2022-09-14T04:07:59;3.80;;;1.60;;
63110;SDS011;49201;53.426;10.300;2022-09-14T04:10:24;6.10;;;2.10;;
63110;SDS011;49201;53.426;10.300;2022-09-14T04:12:50;5.10;;;1.83;;
63110;SDS011;49201;53.426;10.300;2022-09-14T04:15:15;5.60;;;1.90;;
63110;SDS011;49201;53.426;10.300;2022-09-14T04:17:41;8.93;;;2.33;;
63110;SDS011;49201;53.426;10.300;2022-09-14T04:20:06;5.07;;;2.33;;
63110;SDS011;49201;53.426;10.300;2022-09-14T04:22:32;6.07;;;2.30;;
63110;SDS011;49201;53.426;10.300;2022-09-14T04:24:58;4.87;;;2.33;;
63110;SDS011;49201;53.426;10.300;2022-09-14T04:27:23;6.67;;;2.50;;
63110;SDS011;49201;53.426;10.300;2022-09-14T04:29:49;5.93;;;2.00;;
63110;SDS011;49201;53.426;10.300;2022-09-14T04:32:15;4.57;;;2.10;;
63110;SDS011;49201;53.426;10.300;2022-09-14T04:34:41;14.73;;;2.53;;
63110;SDS011;49201;53.426;10.300;2022-09-14T04:37:06;9.70;;;2.57;;
63110;SDS011;49201;53.426;10.300;2022-09-14T04:39:32;6.60;;;2.50;;
63110;SDS011;49201;53.426;10.300;2022-09-14T04:41:57;5.43;;;2.37;;
63110;SDS011;49201;53.426;10.300;2022-09-14T04:44:22;4.70;;;2.20;;
63110;SDS011;49201;53.426;10.300;2022-09-14T04:46:48;8.50;;;2.70;;
63110;SDS011;49201;53.426;10.300;2022-09-14T04:49:14;8.20;;;2.47;;
63110;SDS011;49201;53.426;10.300;2022-09-14T04:51:42;5.50;;;2.53;;
63110;SDS011;49201;53.426;10.300;2022-09-14T04:54:11;10.13;;;2.50;;
63110;SDS011;49201;53.426;10.300;2022-09-14T04:56:38;7.00;;;2.73;;
63110;SDS011;49201;53.426;10.300;2022-09-14T04:59:04;5.27;;;2.37;;
63110;SDS011;49201;53.426;10.300;2022-09-14T05:01:36;5.30;;;2.83;;
63110;SDS011;49201;53.426;10.300;2022-09-14T05:04:06;7.90;;;2.30;;
63110;SDS011;49201;53.426;10.300;2022-09-14T05:06:34;4.37;;;2.40;;
63110;SDS011;49201;53.426;10.300;2022-09-14T05:09:03;5.97;;;2.17;;
63110;SDS011;49201;53.426;10.300;2022-09-14T05:11:31;6.17;;;2.40;;
63110;SDS011;49201;53.426;10.300;2022-09-14T05:13:59;2.90;;;2.27;;
63110;SDS011;49201;53.426;10.300;2022-09-14T05:16:26;10.07;;;3.00;;
63110;SDS011;49201;53.426;10.300;2022-09-14T05:18:54;9.63;;;3.07;;
63110;SDS011;49201;53.426;10.300;2022-09-14T05:21:21;4.73;;;2.90;;
63110;SDS011;49201;53.426;10.300;2022-09-14T05:23:51;5.90;;;3.70;;
63110;SDS011;49201;53.426;10.300;2022-09-14T05:26:18;10.13;;;3.50;;
63110;SDS011;49201;53.426;10.300;2022-09-14T05:28:47;11.23;;;3.60;;
63110;SDS011;49201;53.426;10.300;2022-09-14T05:31:14;5.57;;;3.10;;
63110;SDS011;49201;53.426;10.300;2022-09-14T05:33:41;6.27;;;3.17;;
63110;SDS011;49201;53.426;10.300;2022-09-14T05:36:07;6.33;;;3.63;;
63110;SDS011;49201;53.426;10.300;2022-09-14T05:38:33;5.83;;;3.30;;
63110;SDS011;49201;53.426;10.300;2022-09-14T05:41:01;6.87;;;3.87;;
63110;SDS011;49201;53.426;10.300;2022-09-14T05:43:27;7.70;;;3.17;;
63110;SDS011;49201;53.426;10.300;2022-09-14T05:45:53;8.13;;;3.60;;
63110;SDS011;49201;53.426;10.300;2022-09-14T05:48:19;7.50;;;3.27;;
63110;SDS011;49201;53.426;10.300;2022-09-14T05:50:44;11.43;;;3.60;;
63110;SDS011;49201;53.426;10.300;2022-09-14T05:53:09;8.30;;;3.50;;
63110;SDS011;49201;53.426;10.300;2022-09-14T05:55:35;9.03;;;3.83;;
63110;SDS011;49201;53.426;10.300;2022-09-14T05:58:00;4.53;;;2.87;;
63110;SDS011;49201;53.426;10.300;2022-09-14T06:00:26;13.20;;;3.60;;
63110;SDS011;49201;53.426;10.300;2022-09-14T06:02:52;6.00;;;3.10;;
63110;SDS011;49201;53.426;10.300;2022-09-14T06:05:18;7.47;;;3.83;;
63110;SDS011;49201;53.426;10.300;2022-09-14T06:07:48;6.70;;;3.83;;
63110;SDS011;49201;53.426;10.300;2022-09-14T06:10:15;10.47;;;3.60;;
63110;SDS011;49201;53.426;10.300;2022-09-14T06:12:40;6.77;;;3.57;;
63110;SDS011;49201;53.426;10.300;2022-09-14T06:15:06;5.57;;;3.07;;
63110;SDS011;49201;53.426;10.300;2022-09-14T06:17:32;8.50;;;3.50;;
63110;SDS011;49201;53.426;10.300;2022-09-14T06:19:57;4.83;;;3.13;;
63110;SDS011;49201;53.426;10.300;2022-09-14T06:22:22;9.63;;;3.43;;
63110;SDS011;49201;53.426;10.300;2022-09-14T06:24:48;7.40;;;3.07;;
63110;SDS011;49201;53.426;10.300;2022-09-14T06:27:14;7.40;;;3.17;;
63110;SDS011;49201;53.426;10.300;2022-09-14T06:29:39;5.70;;;3.20;;
63110;SDS011;49201;53.426;10.300;2022-09-14T06:32:05;9.90;;;3.30;;
63110;SDS011;49201;53.426;10.300;2022-09-14T06:34:31;5.27;;;3.33;;
63110;SDS011;49201;53.426;10.300;2022-09-14T06:36:56;9.43;;;3.10;;
63110;SDS011;49201;53.426;10.300;2022-09-14T06:39:22;6.60;;;3.17;;
63110;SDS011;49201;53.426;10.300;2022-09-14T06:41:48;5.80;;;3.20;;
63110;SDS011;49201;53.426;10.300;2022-09-14T06:44:17;6.33;;;3.40;;
63110;SDS011;49201;53.426;10.300;2022-09-14T06:46:43;7.57;;;3.57;;
63110;SDS011;49201;53.426;10.300;2022-09-14T06:49:12;7.10;;;3.33;;
63110;SDS011;49201;53.426;10.300;2022-09-14T06:51:44;9.53;;;3.70;;
63110;SDS011;49201;53.426;10.300;2022-09-14T06:54:11;9.50;;;3.47;;
63110;SDS011;49201;53.426;10.300;2022-09-14T06:56:40;11.40;;;4.03;;
63110;SDS011;49201;53.426;10.300;2022-09-14T06:59:07;7.70;;;3.17;;
63110;SDS011;49201;53.426;10.300;2022-09-14T07:01:34;9.17;;;3.10;;
63110;SDS011;49201;53.426;10.300;2022-09-14T07:04:00;8.30;;;3.13;;
63110;SDS011;49201;53.426;10.300;2022-09-14T07:06:27;7.93;;;2.90;;
63110;SDS011;49201;53.426;10.300;2022-09-14T07:08:55;9.27;;;3.20;;
63110;SDS011;49201;53.426;10.300;2022-09-14T07:11:21;9.23;;;3.70;;
63110;SDS011;49201;53.426;10.300;2022-09-14T07:13:51;8.23;;;2.80;;
63110;SDS011;49201;53.426;10.300;2022-09-14T07:16:23;11.00;;;3.30;;
63110;SDS011;49201;53.426;10.300;2022-09-14T07:18:56;11.57;;;3.43;;
63110;SDS011;49201;53.426;10.300;2022-09-14T07:21:24;9.17;;;3.30;;
63110;SDS011;49201;53.426;10.300;2022-09-14T07:23:50;5.87;;;2.90;;
63110;SDS011;49201;53.426;10.300;2022-09-14T07:26:23;9.23;;;3.13;;
63110;SDS011;49201;53.426;10.300;2022-09-14T07:28:57;7.50;;;2.53;;
63110;SDS011;49201;53.426;10.300;2022-09-14T07:31:26;11.70;;;3.27;;
63110;SDS011;49201;53.426;10.300;2022-09-14T07:33:57;7.83;;;3.40;;
63110;SDS011;49201;53.426;10.300;2022-09-14T07:36:24;12.37;;;3.43;;
63110;SDS011;49201;53.426;10.300;2022-09-14T07:38:51;9.10;;;3.13;;
63110;SDS011;49201;53.426;10.300;2022-09-14T07:41:17;7.43;;;3.50;;
63110;SDS011;49201;53.426;10.300;2022-09-14T07:43:47;8.00;;;2.60;;
63110;SDS011;49201;53.426;10.300;2022-09-14T07:46:14;8.87;;;2.63;;
63110;SDS011;49201;53.426;10.300;2022-09-14T07:48:39;8.97;;;2.77;;
63110;SDS011;49201;53.426;10.300;2022-09-14T07:51:05;9.47;;;2.93;;
63110;SDS011;49201;53.426;10.300;2022-09-14T07:53:36;8.87;;;2.60;;
63110;SDS011;49201;53.426;10.300;2022-09-14T07:56:03;8.03;;;3.03;;
63110;SDS011;49201;53.426;10.300;2022-09-14T07:58:30;7.60;;;2.80;;
63110;SDS011;49201;53.426;10.300;2022-09-14T08:01:06;6.10;;;2.60;;
63110;SDS011;49201;53.426;10.300;2022-09-14T08:03:33;6.67;;;2.43;;
63110;SDS011;49201;53.426;10.300;2022-09-14T08:06:07;8.00;;;2.20;;
63110;SDS011;49201;53.426;10.300;2022-09-14T08:08:37;9.40;;;2.57;;
63110;SDS011;49201;53.426;10.300;2022-09-14T08:11:05;7.83;;;2.23;;
63110;SDS011;49201;53.426;10.300;2022-09-14T08:13:33;10.00;;;2.53;;
63110;SDS011;49201;53.426;10.300;2022-09-14T08:15:59;8.53;;;1.90;;
63110;SDS011;49201;53.426;10.300;2022-09-14T08:18:26;8.60;;;2.23;;
63110;SDS011;49201;53.426;10.300;2022-09-14T08:20:55;6.70;;;2.07;;
63110;SDS011;49201;53.426;10.300;2022-09-14T08:23:20;4.97;;;1.90;;
63110;SDS011;49201;53.426;10.300;2022-09-14T08:25:46;9.53;;;2.03;;
63110;SDS011;49201;53.426;10.300;2022-09-14T08:28:11;7.00;;;2.10;;
63110;SDS011;49201;53.426;10.300;2022-09-14T08:30:37;7.77;;;1.90;;
63110;SDS011;49201;53.426;10.300;2022-09-14T08:33:02;6.40;;;1.97;;
63110;SDS011;49201;53.426;10.300;2022-09-14T08:35:28;4.83;;;1.93;;
63110;SDS011;49201;53.426;10.300;2022-09-14T08:37:53;4.37;;;1.70;;
63110;SDS011;49201;53.426;10.300;2022-09-14T08:40:19;8.83;;;1.63;;
63110;SDS011;49201;53.426;10.300;2022-09-14T08:42:44;5.70;;;1.70;;
63110;SDS011;49201;53.426;10.300;2022-09-14T08:45:12;5.33;;;1.93;;
63110;SDS011;49201;53.426;10.300;2022-09-14T08:47:40;5.87;;;1.83;;
63110;SDS011;49201;53.426;10.300;2022-09-14T08:50:12;7.10;;;1.80;;
63110;SDS011;49201;53.426;10.300;2022-09-14T08:52:43;7.70;;;1.83;;
63110;SDS011;49201;53.426;10.300;2022-09-14T09:00:38;6.00;;;1.53;;
63110;SDS011;49201;53.426;10.300;2022-09-14T09:03:16;5.03;;;1.33;;
63110;SDS011;49201;53.426;10.300;2022-09-14T09:08:56;6.70;;;1.88;;
63110;SDS011;49201;53.426;10.300;2022-09-14T09:11:34;4.80;;;1.70;;
63110;SDS011;49201;53.426;10.300;2022-09-14T09:14:07;7.18;;;1.55;;
63110;SDS011;49201;53.426;10.300;2022-09-14T09:16:44;7.55;;;1.60;;
63110;SDS011;49201;53.426;10.300;2022-09-14T09:19:16;7.93;;;1.65;;
63110;SDS011;49201;53.426;10.300;2022-09-14T09:21:54;3.38;;;1.40;;
63110;SDS011;49201;53.426;10.300;2022-09-14T09:24:25;6.87;;;1.60;;
63110;SDS011;49201;53.426;10.300;2022-09-14T09:26:54;4.20;;;1.38;;
63110;SDS011;49201;53.426;10.300;2022-09-14T09:29:19;6.47;;;1.65;;
63110;SDS011;49201;53.426;10.300;2022-09-14T09:32:04;8.27;;;1.77;;
63110;SDS011;49201;53.426;10.300;2022-09-14T09:34:43;7.15;;;1.60;;
63110;SDS011;49201;53.426;10.300;2022-09-14T09:37:41;7.38;;;1.70;;
63110;SDS011;49201;53.426;10.300;2022-09-14T09:40:14;5.90;;;1.95;;
63110;SDS011;49201;53.426;10.300;2022-09-14T09:45:53;6.30;;;1.92;;
63110;SDS011;49201;53.426;10.300;2022-09-14T09:48:22;7.47;;;2.10;;
63110;SDS011;49201;53.426;10.300;2022-09-14T09:53:21;5.43;;;1.80;;
63110;SDS011;49201;53.426;10.300;2022-09-14T09:55:48;4.30;;;1.77;;
63110;SDS011;49201;53.426;10.300;2022-09-14T09:58:28;6.67;;;1.93;;
63110;SDS011;49201;53.426;10.300;2022-09-14T10:01:01;6.23;;;1.70;;
63110;SDS011;49201;53.426;10.300;2022-09-14T10:03:38;6.57;;;2.10;;
63110;SDS011;49201;53.426;10.300;2022-09-14T10:06:09;6.77;;;1.67;;
63110;SDS011;49201;53.426;10.300;2022-09-14T10:08:39;7.90;;;1.73;;
63110;SDS011;49201;53.426;10.300;2022-09-14T10:11:27;5.40;;;1.50;;
63110;SDS011;49201;53.426;10.300;2022-09-14T10:13:54;4.95;;;1.67;;
63110;SDS011;49201;53.426;10.300;2022-09-14T10:16:19;4.60;;;1.50;;
63110;SDS011;49201;53.426;10.300;2022-09-14T10:18:46;10.13;;;1.83;;
63110;SDS011;49201;53.426;10.300;2022-09-14T10:21:14;6.80;;;1.70;;
63110;SDS011;49201;53.426;10.300;2022-09-14T10:23:42;5.40;;;1.43;;
63110;SDS011;49201;53.426;10.300;2022-09-14T10:28:36;6.88;;;1.80;;
63110;SDS011;49201;53.426;10.300;2022-09-14T10:31:07;6.40;;;1.55;;
63110;SDS011;49201;53.426;10.300;2022-09-14T10:33:42;3.42;;;1.50;;
63110;SDS011;49201;53.426;10.300;2022-09-14T10:38:51;6.38;;;2.00;;
63110;SDS011;49201;53.426;10.300;2022-09-14T10:41:31;4.70;;;1.63;;
63110;SDS011;49201;53.426;10.300;2022-09-14T11:09:23;6.07;;;1.50;;
63110;SDS011;49201;53.426;10.300;2022-09-14T11:25:45;4.43;;;1.20;;
63110;SDS011;49201;53.426;10.300;2022-09-14T11:28:20;6.47;;;1.57;;
63110;SDS011;49201;53.426;10.300;2022-09-14T11:30:54;4.07;;;1.47;;
63110;SDS011;49201;53.426;10.300;2022-09-14T11:33:42;3.53;;;1.47;;
63110;SDS011;49201;53.426;10.300;2022-09-14T11:36:18;4.53;;;1.23;;
63110;SDS011;49201;53.426;10.300;2022-09-14T11:39:34;7.97;;;1.50;;
63110;SDS011;49201;53.426;10.300;2022-09-14T11:44:27;4.67;;;1.60;;
63110;SDS011;49201;53.426;10.300;2022-09-14T11:47:02;6.07;;;1.77;;
63110;SDS011;49201;53.426;10.300;2022-09-14T11:49:39;6.10;;;1.63;;
63110;SDS011;49201;53.426;10.300;2022-09-14T11:52:27;4.27;;;1.60;;
63110;SDS011;49201;53.426;10.300;2022-09-14T11:54:55;4.10;;;1.40;;
63110;SDS011;49201;53.426;10.300;2022-09-14T11:57:31;6.20;;;1.50;;
63110;SDS011;49201;53.426;10.300;2022-09-14T11:59:59;4.97;;;1.30;;
63110;SDS011;49201;53.426;10.300;2022-09-14T12:02:56;3.40;;;1.37;;
63110;SDS011;49201;53.426;10.300;2022-09-14T12:05:30;4.93;;;1.50;;
63110;SDS011;49201;53.426;10.300;2022-09-14T12:07:58;8.20;;;1.70;;
63110;SDS011;49201;53.426;10.300;2022-09-14T12:10:24;3.70;;;1.47;;
63110;SDS011;49201;53.426;10.300;2022-09-14T12:12:51;4.50;;;1.23;;
63110;SDS011;49201;53.426;10.300;2022-09-14T12:17:49;3.30;;;1.30;;
63110;SDS011;49201;53.426;10.300;2022-09-14T12:25:35;4.13;;;1.20;;
63110;SDS011;49201;53.426;10.300;2022-09-14T12:28:17;5.63;;;1.57;;
63110;SDS011;49201;53.426;10.300;2022-09-14T12:36:03;7.60;;;1.60;;
63110;SDS011;49201;53.426;10.300;2022-09-14T12:40:55;3.53;;;1.30;;
63110;SDS011;49201;53.426;10.300;2022-09-14T12:51:23;9.47;;;2.03;;
63110;SDS011;49201;53.426;10.300;2022-09-14T12:59:05;6.97;;;1.73;;
63110;SDS011;49201;53.426;10.300;2022-09-14T13:04:39;4.07;;;1.50;;
63110;SDS011;49201;53.426;10.300;2022-09-14T13:07:11;6.30;;;1.67;;
63110;SDS011;49201;53.426;10.300;2022-09-14T13:09:44;9.30;;;2.03;;
63110;SDS011;49201;53.426;10.300;2022-09-14T13:12:18;3.03;;;1.40;;
63110;SDS011;49201;53.426;10.300;2022-09-14T13:14:54;4.13;;;1.70;;
63110;SDS011;49201;53.426;10.300;2022-09-14T13:17:23;6.03;;;1.77;;
63110;SDS011;49201;53.426;10.300;2022-09-14T13:19:56;7.63;;;2.07;;
63110;SDS011;49201;53.426;10.300;2022-09-14T13:22:25;6.50;;;1.63;;
63110;SDS011;49201;53.426;10.300;2022-09-14T13:24:56;7.23;;;1.80;;
63110;SDS011;49201;53.426;10.300;2022-09-14T13:27:23;8.27;;;3.03;;
63110;SDS011;49201;53.426;10.300;2022-09-14T13:30:23;7.67;;;1.77;;
63110;SDS011;49201;53.426;10.300;2022-09-14T13:32:50;6.03;;;1.60;;
63110;SDS011;49201;53.426;10.300;2022-09-14T13:37:46;6.77;;;1.60;;
63110;SDS011;49201;53.426;10.300;2022-09-14T13:40:13;6.30;;;1.57;;
63110;SDS011;49201;53.426;10.300;2022-09-14T13:42:38;6.70;;;1.37;;
63110;SDS011;49201;53.426;10.300;2022-09-14T13:45:05;5.67;;;1.73;;
63110;SDS011;49201;53.426;10.300;2022-09-14T13:47:32;7.67;;;2.20;;
63110;SDS011;49201;53.426;10.300;2022-09-14T13:49:58;6.97;;;2.37;;
63110;SDS011;49201;53.426;10.300;2022-09-14T13:54:53;8.23;;;2.50;;
63110;SDS011;49201;53.426;10.300;2022-09-14T13:57:31;4.90;;;1.83;;
63110;SDS011;49201;53.426;10.300;2022-09-14T14:00:19;7.20;;;1.90;;
63110;SDS011;49201;53.426;10.300;2022-09-14T14:07:54;8.23;;;1.90;;
63110;SDS011;49201;53.426;10.300;2022-09-14T14:10:24;4.63;;;1.87;;
63110;SDS011;49201;53.426;10.300;2022-09-14T14:12:50;7.43;;;2.53;;
63110;SDS011;49201;53.426;10.300;2022-09-14T14:17:41;7.50;;;1.90;;
63110;SDS011;49201;53.426;10.300;2022-09-14T14:25:31;7.17;;;1.93;;
63110;SDS011;49201;53.426;10.300;2022-09-14T14:28:14;7.73;;;2.07;;
63110;SDS011;49201;53.426;10.300;2022-09-14T14:30:46;5.97;;;1.93;;
63110;SDS011;49201;53.426;10.300;2022-09-14T14:33:13;6.67;;;1.87;;
63110;SDS011;49201;53.426;10.300;2022-09-14T14:35:43;5.87;;;1.87;;
63110;SDS011;49201;53.426;10.300;2022-09-14T14:38:09;6.37;;;1.90;;
63110;SDS011;49201;53.426;10.300;2022-09-14T14:40:34;8.27;;;1.80;;
63110;SDS011;49201;53.426;10.300;2022-09-14T14:43:00;5.20;;;1.73;;
63110;SDS011;49201;53.426;10.300;2022-09-14T14:45:28;6.50;;;2.03;;
63110;SDS011;49201;53.426;10.300;2022-09-14T14:47:55;7.20;;;1.67;;
63110;SDS011;49201;53.426;10.300;2022-09-14T14:50:31;7.87;;;1.90;;
63110;SDS011;49201;53.426;10.300;2022-09-14T14:53:00;8.67;;;1.90;;
63110;SDS011;49201;53.426;10.300;2022-09-14T14:55:27;10.40;;;2.00;;
63110;SDS011;49201;53.426;10.300;2022-09-14T14:57:57;7.33;;;1.90;;
63110;SDS011;49201;53.426;10.300;2022-09-14T15:00:24;7.47;;;1.97;;
63110;SDS011;49201;53.426;10.300;2022-09-14T15:02:51;6.57;;;1.77;;
63110;SDS011;49201;53.426;10.300;2022-09-14T15:05:17;7.63;;;1.70;;
63110;SDS011;49201;53.426;10.300;2022-09-14T15:07:43;9.33;;;2.07;;
63110;SDS011;49201;53.426;10.300;2022-09-14T15:10:14;6.63;;;1.83;;
63110;SDS011;49201;53.426;10.300;2022-09-14T15:12:40;7.37;;;1.80;;
63110;SDS011;49201;53.426;10.300;2022-09-14T15:15:10;8.20;;;2.10;;
63110;SDS011;49201;53.426;10.300;2022-09-14T15:17:41;6.80;;;1.60;;
63110;SDS011;49201;53.426;10.300;2022-09-14T15:20:07;6.53;;;1.97;;
63110;SDS011;49201;53.426;10.300;2022-09-14T15:22:33;9.23;;;2.17;;
63110;SDS011;49201;53.426;10.300;2022-09-14T15:25:00;7.37;;;2.00;;
63110;SDS011;49201;53.426;10.300;2022-09-14T15:27:26;4.77;;;1.70;;
63110;SDS011;49201;53.426;10.300;2022-09-14T15:29:51;6.23;;;1.80;;
63110;SDS011;49201;53.426;10.300;2022-09-14T15:32:17;6.77;;;2.00;;
63110;SDS011;49201;53.426;10.300;2022-09-14T15:34:42;6.20;;;2.20;;
63110;SDS011;49201;53.426;10.300;2022-09-14T15:37:08;5.73;;;1.70;;
63110;SDS011;49201;53.426;10.300;2022-09-14T15:39:33;6.87;;;1.80;;
63110;SDS011;49201;53.426;10.300;2022-09-14T15:41:59;8.47;;;1.90;;
63110;SDS011;49201;53.426;10.300;2022-09-14T15:44:24;9.70;;;1.87;;
63110;SDS011;49201;53.426;10.300;2022-09-14T15:46:50;8.80;;;2.20;;
63110;SDS011;49201;53.426;10.300;2022-09-14T15:49:17;7.50;;;2.13;;
63110;SDS011;49201;53.426;10.300;2022-09-14T15:51:45;9.30;;;2.07;;
63110;SDS011;49201;53.426;10.300;2022-09-14T15:54:12;3.93;;;1.63;;
63110;SDS011;49201;53.426;10.300;2022-09-14T15:56:38;4.47;;;1.40;;
63110;SDS011;49201;53.426;10.300;2022-09-14T15:59:03;5.63;;;2.07;;
63110;SDS011;49201;53.426;10.300;2022-09-14T16:01:29;4.33;;;1.43;;
63110;SDS011;49201;53.426;10.300;2022-09-14T16:03:59;4.23;;;1.30;;
63110;SDS011;49201;53.426;10.300;2022-09-14T16:06:26;3.50;;;1.43;;
63110;SDS011;49201;53.426;10.300;2022-09-14T16:08:52;4.80;;;1.43;;
63110;SDS011;49201;53.426;10.300;2022-09-14T16:11:18;2.90;;;1.20;;
63110;SDS011;49201;53.426;10.300;2022-09-14T16:13:44;4.20;;;1.50;;
63110;SDS011;49201;53.426;10.300;2022-09-14T16:16:11;2.90;;;1.10;;
63110;SDS011;49201;53.426;10.300;2022-09-14T16:18:38;5.20;;;1.37;;
63110;SDS011;49201;53.426;10.300;2022-09-14T16:23:35;4.40;;;1.40;;
63110;SDS011;49201;53.426;10.300;2022-09-14T16:26:09;5.47;;;1.80;;
63110;SDS011;49201;53.426;10.300;2022-09-14T16:28:38;5.87;;;1.60;;
63110;SDS011;49201;53.426;10.300;2022-09-14T16:31:08;5.90;;;1.63;;
63110;SDS011;49201;53.426;10.300;2022-09-14T16:33:37;3.87;;;1.10;;
63110;SDS011;49201;53.426;10.300;2022-09-14T16:36:14;5.17;;;1.50;;
63110;SDS011;49201;53.426;10.300;2022-09-14T16:38:50;2.20;;;1.33;;
63110;SDS011;49201;53.426;10.300;2022-09-14T16:41:16;5.57;;;2.10;;
63110;SDS011;49201;53.426;10.300;2022-09-14T16:43:42;7.40;;;2.00;;
63110;SDS011;49201;53.426;10.300;2022-09-14T16:48:41;4.47;;;1.60;;
63110;SDS011;49201;53.426;10.300;2022-09-14T16:51:08;5.23;;;1.20;;
63110;SDS011;49201;53.426;10.300;2022-09-14T16:53:37;2.73;;;1.27;;
63110;SDS011;49201;53.426;10.300;2022-09-14T16:56:07;2.13;;;1.33;;
63110;SDS011;49201;53.426;10.300;2022-09-14T16:58:35;5.00;;;1.30;;
63110;SDS011;49201;53.426;10.300;2022-09-14T17:01:05;3.70;;;1.40;;
63110;SDS011;49201;53.426;10.300;2022-09-14T17:03:35;3.40;;;1.50;;
63110;SDS011;49201;53.426;10.300;2022-09-14T17:06:02;3.07;;;1.50;;
63110;SDS011;49201;53.426;10.300;2022-09-14T17:08:30;3.37;;;1.27;;
63110;SDS011;49201;53.426;10.300;2022-09-14T17:10:56;2.83;;;1.00;;
63110;SDS011;49201;53.426;10.300;2022-09-14T17:13:23;3.83;;;1.90;;
63110;SDS011;49201;53.426;10.300;2022-09-14T17:15:49;6.20;;;1.90;;
63110;SDS011;49201;53.426;10.300;2022-09-14T17:18:14;5.23;;;1.90;;
63110;SDS011;49201;53.426;10.300;2022-09-14T17:20:40;3.50;;;1.60;;
63110;SDS011;49201;53.426;10.300;2022-09-14T17:23:16;4.73;;;1.33;;